Time;durP1;ratioP1;P1;durP2;ratioP2;P2;SDS_P1;SDS_P2;PMS_P1;PMS_P2;Temp;Humidity;BMP_temperature;BMP_pressure;BME280_temperature;BME280_humidity;BME280_pressure;Samples;Min_cycle;Max_cycle;Signal;HPM_P1;HPM_P2
2022/10/24 00:02:25;;;;;;;8.90;2.07;;;;;;;;;;6303128;22;20384;-89
2022/10/24 00:04:51;;;;;;;4.30;1.63;;;17.90;99.90;;;;;;6304295;22;20498;-89
2022/10/24 00:07:17;;;;;;;4.93;1.40;;;;;;;;;;6306478;22;20385;-89
2022/10/24 00:09:43;;;;;;;8.37;1.43;;;17.90;99.90;;;;;;6305449;22;20373;-88
2022/10/24 00:12:08;;;;;;;5.80;1.50;;;18.00;99.90;;;;;;6304214;22;20537;-88
2022/10/24 00:14:35;;;;;;;4.10;1.27;;;17.80;99.90;;;;;;6303749;22;20555;-87
2022/10/24 00:17:02;;;;;;;7.60;1.43;;;17.80;99.90;;;;;;6304626;22;20155;-89
2022/10/24 00:19:28;;;;;;;5.80;1.63;;;;;;;;;;6306610;22;20468;-89
2022/10/24 00:21:54;;;;;;;3.30;1.47;;;;;;;;;;6307977;22;20392;-87
2022/10/24 00:24:20;;;;;;;2.93;1.20;;;;;;;;;;6305710;22;20413;-90
2022/10/24 00:26:54;;;;;;;5.17;1.40;;;;;;;;;;6306421;22;20390;-91
2022/10/24 00:29:36;;;;;;;6.53;1.00;;;17.70;99.90;;;;;;6307095;22;20467;-89
2022/10/24 00:32:25;;;;;;;3.23;0.90;;;17.60;99.90;;;;;;6307910;22;20369;-89
2022/10/24 00:34:51;;;;;;;3.80;1.33;;;;;;;;;;6308886;22;20378;-90
2022/10/24 00:37:20;;;;;;;4.73;1.30;;;;;;;;;;6310059;22;20443;-91
2022/10/24 00:39:46;;;;;;;1.87;0.80;;;;;;;;;;6322799;22;20360;-90
2022/10/24 00:42:12;;;;;;;7.80;1.10;;;;;;;;;;6331416;22;20370;-91
2022/10/24 00:44:40;;;;;;;4.40;2.43;;;17.50;99.90;;;;;;6333331;22;20433;-91
2022/10/24 00:47:12;;;;;;;8.93;1.80;;;17.50;99.90;;;;;;6328179;22;20394;-90
2022/10/24 00:50:10;;;;;;;7.40;1.60;;;17.50;99.90;;;;;;6324616;22;20374;-91
2022/10/24 00:52:41;;;;;;;8.00;1.90;;;17.50;99.90;;;;;;6324253;22;20412;-91
2022/10/24 00:55:07;;;;;;;5.20;1.40;;;21.60;99.90;;;;;;6319094;22;20397;-91
2022/10/24 00:57:43;;;;;;;6.00;2.03;;;17.50;99.90;;;;;;6305265;22;20467;-91
2022/10/24 01:00:17;;;;;;;5.30;1.37;;;17.50;99.90;;;;;;6304094;22;20406;-89
2022/10/24 01:02:44;;;;;;;5.50;1.60;;;17.50;99.90;;;;;;6304081;22;20830;-91
2022/10/24 01:05:10;;;;;;;4.73;1.50;;;;;;;;;;6306896;22;20417;-87
2022/10/24 01:07:46;;;;;;;6.90;1.40;;;17.30;99.90;;;;;;6305755;22;20448;-89
2022/10/24 01:10:30;;;;;;;7.03;1.50;;;17.30;99.90;;;;;;6306911;22;20374;-89
2022/10/24 01:12:56;;;;;;;7.30;1.33;;;;;;;;;;6306354;22;20428;-88
2022/10/24 01:15:37;;;;;;;5.73;1.33;;;17.20;99.90;;;;;;6307713;22;20361;-89
2022/10/24 01:18:11;;;;;;;10.00;1.80;;;17.30;99.90;;;;;;6308346;22;20393;-91
2022/10/24 01:21:05;;;;;;;8.00;1.97;;;17.20;99.90;;;;;;6309651;22;20446;-90
2022/10/24 01:23:52;;;;;;;6.37;2.13;;;17.20;99.90;;;;;;6309303;22;20868;-87
2022/10/24 01:26:36;;;;;;;4.87;1.90;;;17.10;99.90;;;;;;6306240;22;20378;-89
2022/10/24 01:29:33;;;;;;;8.33;1.83;;;17.00;99.90;;;;;;6302685;22;20789;-88
2022/10/24 01:32:20;;;;;;;6.40;1.70;;;16.80;99.90;;;;;;6304882;22;20378;-90
2022/10/24 01:34:53;;;;;;;8.13;1.33;;;16.80;99.90;;;;;;6306120;22;20382;-89
2022/10/24 01:37:25;;;;;;;6.87;2.73;;;16.70;99.90;;;;;;6305970;22;20386;-90
2022/10/24 01:39:56;;;;;;;13.20;1.70;;;16.60;99.90;;;;;;6304370;22;20362;-90
2022/10/24 01:42:24;;;;;;;9.70;2.93;;;16.60;99.90;;;;;;6304327;22;20369;-91
2022/10/24 01:44:55;;;;;;;4.87;1.50;;;16.60;99.90;;;;;;6304743;22;20369;-90
2022/10/24 01:47:28;;;;;;;9.17;1.83;;;16.60;99.90;;;;;;6307333;22;20477;-89
2022/10/24 01:50:04;;;;;;;5.33;1.60;;;16.40;99.90;;;;;;6307830;22;20898;-88
2022/10/24 01:52:34;;;;;;;9.63;1.30;;;16.70;99.90;;;;;;6308371;22;20419;-85
2022/10/24 01:55:00;;;;;;;6.53;1.27;;;16.80;99.90;;;;;;6306406;22;20378;-87
2022/10/24 01:57:27;;;;;;;6.37;1.37;;;17.00;99.90;;;;;;6305746;22;20444;-87
2022/10/24 01:59:53;;;;;;;5.13;1.47;;;17.00;99.90;;;;;;6308019;22;20373;-87
2022/10/24 02:02:42;;;;;;;4.40;1.30;;;17.10;99.90;;;;;;6306900;22;20460;-86
2022/10/24 02:05:14;;;;;;;8.03;0.80;;;17.10;99.90;;;;;;6307047;22;20590;-88
2022/10/24 02:07:44;;;;;;;6.73;1.20;;;17.10;99.90;;;;;;6297519;22;20995;-85
2022/10/24 02:10:15;;;;;;;9.27;2.00;;;17.10;99.90;;;;;;6275708;22;20721;-86
2022/10/24 02:12:46;;;;;;;4.00;1.30;;;20.10;99.90;;;;;;6248637;22;20529;-85
2022/10/24 02:15:21;;;;;;;8.03;1.50;;;17.00;99.90;;;;;;6249910;22;20508;-84
2022/10/24 02:17:47;;;;;;;3.97;1.17;;;17.20;99.90;;;;;;6277499;22;20447;-85
2022/10/24 02:20:13;;;;;;;5.97;1.33;;;;;;;;;;6279408;22;20379;-85
2022/10/24 02:22:39;;;;;;;20.57;1.70;;;17.20;99.90;;;;;;6277891;22;20480;-85
2022/10/24 02:25:25;;;;;;;7.50;1.53;;;17.20;99.90;;;;;;6275717;22;20394;-85
2022/10/24 02:28:15;;;;;;;6.53;1.60;;;17.30;99.90;;;;;;6276421;22;20693;-85
2022/10/24 02:30:54;;;;;;;6.73;1.70;;;17.30;99.90;;;;;;6276469;22;20510;-86
2022/10/24 02:33:21;;;;;;;8.90;1.47;;;17.20;99.90;;;;;;6278589;22;20422;-84
2022/10/24 02:35:48;;;;;;;5.67;1.17;;;17.40;99.90;;;;;;6276805;22;20375;-84
2022/10/24 02:38:25;;;;;;;10.83;1.90;;;17.40;99.90;;;;;;6275200;22;20441;-83
2022/10/24 02:40:52;;;;;;;6.40;1.53;;;17.40;99.90;;;;;;6272679;22;20363;-84
2022/10/24 02:43:20;;;;;;;8.83;1.90;;;17.40;99.90;;;;;;6277029;22;20393;-84
2022/10/24 02:45:49;;;;;;;3.60;2.07;;;17.40;99.90;;;;;;6278264;22;20371;-84
2022/10/24 02:48:18;;;;;;;5.63;1.40;;;17.40;99.90;;;;;;6278615;22;20465;-84
2022/10/24 02:50:44;;;;;;;2.60;1.30;;;17.30;99.90;;;;;;6276359;22;20762;-85
2022/10/24 02:53:14;;;;;;;7.00;1.50;;;17.30;99.90;;;;;;6280783;22;20778;-85
2022/10/24 02:55:40;;;;;;;10.93;1.90;;;17.30;99.90;;;;;;6280266;22;20865;-83
2022/10/24 02:58:06;;;;;;;20.37;1.97;;;17.10;99.90;;;;;;6279698;22;20410;-83
2022/10/24 03:00:31;;;;;;;2.90;1.13;;;17.10;99.90;;;;;;6274371;22;20390;-83
2022/10/24 03:02:57;;;;;;;5.00;2.10;;;17.10;99.90;;;;;;6274971;22;20245;-83
2022/10/24 03:05:23;;;;;;;3.17;1.30;;;17.10;99.90;;;;;;6276086;22;20210;-84
2022/10/24 03:07:48;;;;;;;5.87;1.93;;;17.10;99.90;;;;;;6283098;22;20345;-84
2022/10/24 03:10:14;;;;;;;2.43;1.40;;;17.00;99.90;;;;;;6307990;22;20145;-86
2022/10/24 03:12:39;;;;;;;4.60;1.73;;;17.00;99.90;;;;;;6305744;22;20274;-84
2022/10/24 03:15:05;;;;;;;11.33;1.43;;;17.00;99.90;;;;;;6307219;22;20147;-84
2022/10/24 03:17:31;;;;;;;9.67;1.40;;;17.10;99.90;;;;;;6309737;22;20170;-84
2022/10/24 03:19:56;;;;;;;7.30;1.30;;;17.10;99.90;;;;;;6307692;22;20350;-84
2022/10/24 03:22:22;;;;;;;10.53;2.23;;;17.10;99.90;;;;;;6310937;22;20151;-82
2022/10/24 03:24:48;;;;;;;11.17;2.33;;;;;;;;;;6308311;22;20151;-84
2022/10/24 03:27:14;;;;;;;6.77;1.70;;;;;;;;;;6309415;22;20162;-84
2022/10/24 03:29:40;;;;;;;5.30;1.80;;;17.20;99.90;;;;;;6306792;22;20381;-84
2022/10/24 03:32:06;;;;;;;7.67;1.80;;;;;;;;;;6307516;22;20416;-84
2022/10/24 03:34:32;;;;;;;12.97;2.17;;;17.20;99.90;;;;;;6309653;22;20984;-84
2022/10/24 03:36:57;;;;;;;8.40;1.50;;;17.20;99.90;;;;;;6308870;22;20390;-83
2022/10/24 03:39:23;;;;;;;12.67;2.63;;;17.20;99.90;;;;;;6309950;22;20401;-84
2022/10/24 03:41:48;;;;;;;12.10;2.67;;;17.20;99.90;;;;;;6307224;22;20525;-84
2022/10/24 03:44:14;;;;;;;7.10;2.50;;;17.30;99.90;;;;;;6306672;22;20201;-83
2022/10/24 03:46:39;;;;;;;14.63;2.50;;;17.30;99.90;;;;;;6308166;22;20582;-84
2022/10/24 03:49:05;;;;;;;5.90;1.90;;;17.30;99.90;;;;;;6306531;22;20175;-86
2022/10/24 03:51:31;;;;;;;4.40;1.97;;;17.30;99.90;;;;;;6310658;22;20177;-86
2022/10/24 03:53:57;;;;;;;8.17;3.03;;;;;;;;;;6308418;22;20183;-85
2022/10/24 03:56:22;;;;;;;10.90;2.07;;;17.30;99.90;;;;;;6310218;22;20616;-85
2022/10/24 03:58:48;;;;;;;7.43;2.53;;;17.30;99.90;;;;;;6308978;22;20456;-85
2022/10/24 04:01:16;;;;;;;6.23;2.23;;;;;;;;;;6309503;22;20143;-84
2022/10/24 04:03:44;;;;;;;8.43;2.73;;;17.30;99.90;;;;;;6309873;22;20501;-85
2022/10/24 04:06:10;;;;;;;10.17;1.80;;;17.30;99.90;;;;;;6309112;22;20381;-84
2022/10/24 04:08:36;;;;;;;7.37;2.00;;;17.30;99.90;;;;;;6326643;22;20475;-84
2022/10/24 04:11:01;;;;;;;7.50;2.17;;;17.30;99.90;;;;;;6337075;22;20970;-87
2022/10/24 04:13:27;;;;;;;11.13;3.63;;;17.30;99.90;;;;;;6339775;22;20162;-84
2022/10/24 04:15:53;;;;;;;4.83;2.23;;;;;;;;;;6338941;22;20150;-85
2022/10/24 04:18:19;;;;;;;7.77;2.80;;;;;;;;;;6338086;22;20238;-84
2022/10/24 04:20:45;;;;;;;10.33;2.40;;;17.30;99.90;;;;;;6335652;22;20364;-86
2022/10/24 04:23:10;;;;;;;5.17;2.00;;;17.30;99.90;;;;;;6335476;22;20369;-87
2022/10/24 04:25:36;;;;;;;6.60;2.73;;;17.30;99.90;;;;;;6337757;22;20143;-85
2022/10/24 04:28:01;;;;;;;3.20;2.23;;;17.20;99.90;;;;;;6308749;22;20174;-86
2022/10/24 04:30:28;;;;;;;8.00;2.73;;;17.20;99.90;;;;;;6309517;22;20177;-84
2022/10/24 04:32:55;;;;;;;7.67;2.70;;;17.30;99.90;;;;;;6339156;22;20213;-84
2022/10/24 04:35:21;;;;;;;14.13;3.23;;;17.20;99.90;;;;;;6341611;22;20369;-85
2022/10/24 04:37:46;;;;;;;11.57;2.50;;;17.30;99.90;;;;;;6340351;22;20718;-85
2022/10/24 04:40:12;;;;;;;12.20;3.57;;;17.30;99.90;;;;;;6338587;22;20369;-84
2022/10/24 04:42:38;;;;;;;7.17;1.83;;;17.20;99.90;;;;;;6339614;22;20596;-83
2022/10/24 04:45:03;;;;;;;3.17;1.33;;;17.20;99.90;;;;;;6342366;22;20503;-83
2022/10/24 04:47:29;;;;;;;24.13;3.10;;;17.20;99.90;;;;;;6313096;22;20229;-82
2022/10/24 04:49:55;;;;;;;10.87;2.50;;;17.10;99.90;;;;;;6310935;22;20898;-83
2022/10/24 04:52:20;;;;;;;4.23;1.97;;;17.20;99.90;;;;;;6341711;22;20153;-83
2022/10/24 04:54:46;;;;;;;11.93;2.33;;;17.20;99.90;;;;;;6310604;22;20185;-84
2022/10/24 04:57:11;;;;;;;9.03;1.73;;;17.10;99.90;;;;;;6338662;22;20134;-83
2022/10/24 04:59:37;;;;;;;9.53;3.10;;;17.20;99.90;;;;;;6305639;22;20147;-84
2022/10/24 05:02:02;;;;;;;8.83;2.13;;;17.20;99.90;;;;;;6332878;22;20142;-84
2022/10/24 05:04:28;;;;;;;9.13;2.23;;;;;;;;;;6337805;22;20158;-83
2022/10/24 05:06:54;;;;;;;10.00;2.40;;;17.20;99.90;;;;;;6311181;22;20158;-83
2022/10/24 05:09:19;;;;;;;9.07;2.53;;;17.20;99.90;;;;;;6308281;22;20416;-83
2022/10/24 05:11:45;;;;;;;7.00;2.30;;;17.20;99.90;;;;;;6308003;22;20552;-82
2022/10/24 05:14:10;;;;;;;15.23;2.67;;;17.30;99.90;;;;;;6332683;22;20592;-83
2022/10/24 05:16:36;;;;;;;5.30;1.40;;;17.20;99.90;;;;;;6302505;22;20664;-81
2022/10/24 05:19:02;;;;;;;11.63;3.47;;;17.20;99.90;;;;;;6334411;22;20249;-84
2022/10/24 05:21:27;;;;;;;8.83;2.73;;;17.30;99.90;;;;;;6337524;22;20515;-84
2022/10/24 05:23:53;;;;;;;7.47;2.70;;;17.20;99.90;;;;;;6336340;22;20190;-83
2022/10/24 05:26:18;;;;;;;7.03;2.57;;;17.20;99.90;;;;;;6309876;22;20179;-84
2022/10/24 05:28:44;;;;;;;9.30;3.00;;;17.20;99.90;;;;;;6335451;22;20166;-83
2022/10/24 05:31:09;;;;;;;15.23;3.43;;;17.20;99.90;;;;;;6305581;22;20161;-84
2022/10/24 05:33:35;;;;;;;5.90;2.40;;;17.10;99.90;;;;;;6338100;22;20253;-83
2022/10/24 05:36:01;;;;;;;11.97;2.47;;;16.90;99.90;;;;;;6338379;22;20146;-83
2022/10/24 05:38:26;;;;;;;13.63;2.90;;;16.40;99.90;;;;;;6337638;22;20169;-83
2022/10/24 05:40:52;;;;;;;10.13;3.53;;;16.10;99.90;;;;;;6338944;22;20143;-83
2022/10/24 05:43:18;;;;;;;9.83;3.60;;;15.60;99.90;;;;;;6338927;22;20162;-83
2022/10/24 05:45:44;;;;;;;18.00;3.77;;;15.20;99.90;;;;;;6338583;22;20376;-84
2022/10/24 05:48:09;;;;;;;14.93;4.60;;;15.20;99.90;;;;;;6338363;22;20170;-84
2022/10/24 05:50:35;;;;;;;10.13;3.23;;;15.10;99.90;;;;;;6336238;22;20151;-84
2022/10/24 05:53:01;;;;;;;13.43;3.63;;;15.00;99.90;;;;;;6338752;22;20258;-85
2022/10/24 05:55:26;;;;;;;16.17;3.30;;;15.00;99.90;;;;;;6334547;22;20127;-82
2022/10/24 05:57:52;;;;;;;4.03;2.67;;;15.10;99.90;;;;;;6338183;22;20389;-83
2022/10/24 06:00:18;;;;;;;15.70;3.50;;;15.10;99.90;;;;;;6338032;22;20138;-82
2022/10/24 06:02:44;;;;;;;9.90;3.90;;;15.10;99.90;;;;;;6340443;22;20162;-83
2022/10/24 06:05:11;;;;;;;21.50;4.77;;;15.10;99.90;;;;;;6340143;22;20369;-83
2022/10/24 06:07:37;;;;;;;13.50;3.97;;;15.10;99.90;;;;;;6336622;22;20395;-83
2022/10/24 06:10:05;;;;;;;8.50;3.43;;;15.10;99.90;;;;;;6332821;22;20357;-82
2022/10/24 06:12:30;;;;;;;8.93;3.10;;;15.20;99.90;;;;;;6310621;22;20357;-82
2022/10/24 06:14:57;;;;;;;9.43;3.07;;;;;;;;;;6309946;22;20395;-82
2022/10/24 06:17:22;;;;;;;6.30;2.30;;;;;;;;;;6336329;22;20199;-82
2022/10/24 06:19:49;;;;;;;9.77;2.50;;;15.20;99.90;;;;;;6333275;22;20414;-81
2022/10/24 06:22:16;;;;;;;4.33;2.10;;;15.20;99.90;;;;;;6335885;22;20475;-82
2022/10/24 06:24:42;;;;;;;8.00;3.30;;;15.10;99.90;;;;;;6337731;22;21182;-81
2022/10/24 06:27:11;;;;;;;8.83;2.73;;;15.00;99.90;;;;;;6307313;22;20389;-82
2022/10/24 06:29:36;;;;;;;2.13;1.93;;;14.90;99.90;;;;;;6334385;22;20392;-82
2022/10/24 06:32:02;;;;;;;9.63;3.00;;;14.90;99.90;;;;;;6335151;22;20376;-81
2022/10/24 06:34:28;;;;;;;7.37;2.90;;;14.80;99.90;;;;;;6335183;22;20178;-82
2022/10/24 06:36:54;;;;;;;5.87;2.00;;;14.90;99.90;;;;;;6336121;22;20434;-82
2022/10/24 06:39:20;;;;;;;5.20;2.03;;;;;;;;;;6307640;22;20182;-81
2022/10/24 06:41:45;;;;;;;8.40;2.93;;;14.90;99.90;;;;;;6305460;22;20143;-82
2022/10/24 06:44:11;;;;;;;4.37;1.67;;;14.90;99.90;;;;;;6336351;22;20458;-81
2022/10/24 06:46:37;;;;;;;9.40;4.07;;;15.00;99.90;;;;;;6307543;22;20153;-82
2022/10/24 06:49:02;;;;;;;5.77;2.53;;;15.00;99.90;;;;;;6335123;22;20167;-82
2022/10/24 06:51:28;;;;;;;5.63;1.60;;;15.10;99.90;;;;;;6337428;22;20559;-82
2022/10/24 06:53:53;;;;;;;5.80;2.50;;;15.10;99.90;;;;;;6303200;22;20569;-81
2022/10/24 06:56:19;;;;;;;6.27;2.33;;;15.10;99.90;;;;;;6306354;22;20156;-82
2022/10/24 06:58:45;;;;;;;5.90;1.77;;;15.20;99.90;;;;;;6328367;22;20166;-82
2022/10/24 07:01:18;;;;;;;4.40;1.70;;;15.20;99.90;;;;;;6335442;22;20506;-83
2022/10/24 07:03:44;;;;;;;10.70;2.27;;;15.20;99.90;;;;;;6335726;22;20638;-81
2022/10/24 07:06:23;;;;;;;8.50;1.97;;;15.40;99.90;;;;;;6334032;22;20357;-83
2022/10/24 07:08:54;;;;;;;7.13;3.83;;;15.30;99.90;;;;;;6304745;22;20443;-83
2022/10/24 07:11:20;;;;;;;6.87;2.27;;;15.30;99.90;;;;;;6308118;22;20409;-82
2022/10/24 07:13:46;;;;;;;9.03;2.10;;;14.90;99.90;;;;;;6332502;22;20415;-82
2022/10/24 07:16:11;;;;;;;8.97;4.07;;;15.10;99.90;;;;;;6304634;22;20384;-82
2022/10/24 07:18:37;;;;;;;9.63;3.00;;;15.10;99.90;;;;;;6336017;22;20162;-82
2022/10/24 07:21:22;;;;;;;12.50;1.67;;;15.20;99.90;;;;;;6336484;22;20703;-83
2022/10/24 07:23:50;;;;;;;7.17;2.70;;;15.20;99.90;;;;;;6337096;22;20361;-82
2022/10/24 07:26:17;;;;;;;7.37;2.40;;;15.20;99.90;;;;;;6331292;22;21281;-82
2022/10/24 07:28:45;;;;;;;6.93;2.30;;;15.20;99.90;;;;;;6306654;22;21133;-82
2022/10/24 07:31:13;;;;;;;11.03;3.47;;;15.10;99.90;;;;;;6306780;22;20392;-82
2022/10/24 07:33:40;;;;;;;3.97;2.27;;;15.10;99.90;;;;;;6335284;22;20431;-82
2022/10/24 07:36:06;;;;;;;6.33;2.57;;;15.10;99.90;;;;;;6336101;22;20859;-82
2022/10/24 07:38:32;;;;;;;8.60;1.70;;;15.20;99.90;;;;;;6332241;22;20394;-82
2022/10/24 07:40:58;;;;;;;5.97;2.00;;;;;;;;;;6301102;22;20373;-81
2022/10/24 07:43:24;;;;;;;15.53;4.30;;;15.00;99.90;;;;;;6330675;22;20375;-82
2022/10/24 07:45:49;;;;;;;10.83;2.00;;;15.00;99.90;;;;;;6302467;22;20377;-82
2022/10/24 07:48:15;;;;;;;5.37;2.40;;;15.00;99.90;;;;;;6329461;22;20166;-82
2022/10/24 07:50:43;;;;;;;7.03;2.73;;;15.00;99.90;;;;;;6308263;22;20155;-83
2022/10/24 07:53:09;;;;;;;7.30;2.00;;;15.00;99.90;;;;;;6336236;22;20618;-82
2022/10/24 07:55:37;;;;;;;10.27;2.70;;;15.10;99.90;;;;;;6306508;22;20372;-83
2022/10/24 07:58:03;;;;;;;5.00;2.00;;;15.30;99.90;;;;;;6330135;22;20473;-83
2022/10/24 08:00:29;;;;;;;2.50;1.67;;;;;;;;;;6335964;22;20804;-82
2022/10/24 08:02:54;;;;;;;4.37;2.33;;;15.20;99.90;;;;;;6306624;22;20150;-82
2022/10/24 08:05:20;;;;;;;6.07;1.80;;;15.20;99.90;;;;;;6308856;22;20404;-82
2022/10/24 08:07:46;;;;;;;2.47;1.63;;;15.30;99.90;;;;;;6330413;22;20492;-82
2022/10/24 08:10:12;;;;;;;4.80;2.07;;;;;;;;;;6275976;22;20203;-86
2022/10/24 08:12:38;;;;;;;7.10;1.90;;;;;;;;;;6301302;22;20162;-87
2022/10/24 08:15:04;;;;;;;9.07;2.00;;;15.40;99.90;;;;;;6292372;22;20373;-86
2022/10/24 08:17:30;;;;;;;4.33;2.60;;;;;;;;;;6292578;22;20395;-86
2022/10/24 08:19:56;;;;;;;5.60;2.13;;;;;;;;;;6322818;22;20815;-85
2022/10/24 08:22:22;;;;;;;5.10;1.70;;;;;;;;;;6296997;22;20461;-86
2022/10/24 08:24:48;;;;;;;4.00;1.70;;;15.20;99.90;;;;;;6296224;22;20384;-86
2022/10/24 08:27:14;;;;;;;11.83;2.73;;;;;;;;;;6325400;22;20356;-85
2022/10/24 08:29:40;;;;;;;7.90;3.30;;;;;;;;;;6323259;22;20146;-85
2022/10/24 08:32:06;;;;;;;6.40;1.90;;;;;;;;;;6297687;22;20369;-87
2022/10/24 08:34:32;;;;;;;6.63;2.13;;;;;;;;;;6298372;22;20431;-85
2022/10/24 08:36:58;;;;;;;15.23;3.00;;;;;;;;;;6323298;22;20357;-83
2022/10/24 08:39:25;;;;;;;8.30;2.00;;;;;;;;;;6295214;22;20369;-87
2022/10/24 08:41:57;;;;;;;9.73;2.60;;;15.50;99.90;;;;;;6325498;22;20368;-87
2022/10/24 08:44:30;;;;;;;7.47;1.50;;;15.50;99.90;;;;;;6327324;22;20401;-86
2022/10/24 08:46:59;;;;;;;5.37;1.60;;;15.60;99.90;;;;;;6294500;22;20368;-85
2022/10/24 08:49:32;;;;;;;5.50;2.00;;;15.80;99.90;;;;;;6296123;22;20416;-87
2022/10/24 08:52:19;;;;;;;8.93;3.30;;;15.70;99.90;;;;;;6295402;22;20379;-86
2022/10/24 08:54:46;;;;;;;7.50;1.83;;;15.70;99.90;;;;;;6298693;22;20444;-86
2022/10/24 08:57:27;;;;;;;7.80;2.10;;;15.80;99.90;;;;;;6298653;22;20395;-86
2022/10/24 08:59:58;;;;;;;3.33;1.43;;;15.80;99.90;;;;;;6328445;22;20386;-86
2022/10/24 09:02:29;;;;;;;5.80;2.03;;;15.80;99.90;;;;;;6299356;22;20400;-86
2022/10/24 09:04:58;;;;;;;5.90;2.30;;;15.80;99.90;;;;;;6324820;22;20395;-86
2022/10/24 09:07:24;;;;;;;3.80;1.90;;;;;;;;;;6294590;22;20441;-85
2022/10/24 09:09:56;;;;;;;3.97;1.70;;;15.70;99.90;;;;;;6326764;22;20443;-87
2022/10/24 09:12:23;;;;;;;5.80;2.30;;;;;;;;;;6298695;22;20845;-85
2022/10/24 09:14:58;;;;;;;8.90;2.20;;;15.80;99.90;;;;;;6317664;22;20400;-85
2022/10/24 09:17:32;;;;;;;4.67;2.60;;;15.80;99.90;;;;;;6336661;22;20960;-85
2022/10/24 09:20:05;;;;;;;5.90;2.30;;;15.90;99.90;;;;;;6328785;22;20352;-87
2022/10/24 09:22:33;;;;;;;8.40;2.57;;;15.70;99.90;;;;;;6299532;22;20399;-86
2022/10/24 09:25:19;;;;;;;7.67;2.40;;;15.80;99.90;;;;;;6299231;22;20894;-86
2022/10/24 09:27:45;;;;;;;4.50;2.50;;;15.60;99.90;;;;;;6328424;22;20440;-87
2022/10/24 09:30:17;;;;;;;7.13;1.87;;;15.70;99.90;;;;;;6324548;22;20407;-87
2022/10/24 09:32:43;;;;;;;5.60;1.80;;;;;;;;;;6292371;22;20181;-85
2022/10/24 09:35:18;;;;;;;11.73;2.73;;;15.70;99.90;;;;;;6321643;22;20385;-87
2022/10/24 09:37:47;;;;;;;13.13;2.60;;;15.80;99.90;;;;;;6298626;22;20372;-88
2022/10/24 09:40:33;;;;;;;6.33;2.47;;;15.70;99.90;;;;;;6299593;22;20388;-87
2022/10/24 09:43:15;;;;;;;6.47;1.80;;;15.90;99.90;;;;;;6300117;22;20397;-86
2022/10/24 09:46:00;;;;;;;6.93;1.70;;;15.80;99.90;;;;;;6327601;22;20357;-86
2022/10/24 09:48:52;;;;;;;3.03;2.00;;;16.10;99.90;;;;;;6299828;22;20373;-87
2022/10/24 09:51:39;;;;;;;8.83;2.40;;;16.20;99.90;;;;;;6301131;22;20832;-86
2022/10/24 09:54:06;;;;;;;5.23;2.20;;;;;;;;;;6327421;22;20452;-86
2022/10/24 09:56:40;;;;;;;5.00;1.97;;;16.20;99.90;;;;;;6300036;22;20373;-87
2022/10/24 09:59:31;;;;;;;10.17;2.23;;;16.30;99.90;;;;;;6299542;22;20380;-86
2022/10/24 10:02:26;;;;;;;5.30;1.90;;;16.30;99.90;;;;;;6327128;22;21203;-87
2022/10/24 10:05:19;;;;;;;3.63;1.73;;;16.30;99.90;;;;;;6318972;22;21314;-86
2022/10/24 10:07:47;;;;;;;5.07;2.03;;;16.30;99.90;;;;;;6294265;22;20875;-86
2022/10/24 10:10:30;;;;;;;6.87;1.93;;;16.40;99.90;;;;;;6326503;22;20400;-86
2022/10/24 10:13:13;;;;;;;4.07;1.70;;;16.30;99.90;;;;;;6326747;22;21027;-85
2022/10/24 10:15:57;;;;;;;7.70;3.10;;;16.40;99.90;;;;;;6298059;22;20922;-87
2022/10/24 10:18:33;;;;;;;4.20;1.90;;;16.40;99.90;;;;;;6327112;22;20352;-87
2022/10/24 10:21:14;;;;;;;10.83;2.00;;;16.40;99.90;;;;;;6325291;22;20365;-88
2022/10/24 10:23:43;;;;;;;3.37;2.30;;;16.30;99.90;;;;;;6330656;22;20380;-86
2022/10/24 10:26:23;;;;;;;9.93;2.70;;;16.40;99.90;;;;;;6350846;22;20365;-86
2022/10/24 10:29:05;;;;;;;7.30;2.03;;;16.40;99.90;;;;;;6309128;22;20395;-86
2022/10/24 10:31:43;;;;;;;3.27;1.83;;;16.50;99.90;;;;;;6326038;22;20387;-86
2022/10/24 10:34:21;;;;;;;6.90;1.80;;;16.50;99.90;;;;;;6296687;22;20423;-86
2022/10/24 10:37:15;;;;;;;4.93;1.43;;;16.50;99.90;;;;;;6299088;22;20395;-87
2022/10/24 10:39:41;;;;;;;4.87;1.70;;;;;;;;;;6301091;22;20383;-87
2022/10/24 10:42:16;;;;;;;7.80;2.93;;;16.60;99.90;;;;;;6330029;22;20428;-87
2022/10/24 10:45:18;;;;;;;5.83;1.60;;;16.60;99.90;;;;;;6350264;22;20371;-85
2022/10/24 10:48:04;;;;;;;3.83;2.03;;;16.70;99.90;;;;;;6253128;22;20491;-88
2022/10/24 10:51:19;;;;;;;5.50;1.63;;;16.60;99.90;;;;;;6327078;22;21312;-87
2022/10/24 10:54:14;;;;;;;7.00;2.87;;;16.60;99.90;;;;;;6272796;22;20491;-86
2022/10/24 10:56:54;;;;;;;5.67;2.00;;;16.30;99.90;;;;;;6327050;22;21144;-86
2022/10/24 10:59:41;;;;;;;4.47;1.90;;;16.50;99.90;;;;;;6326054;22;20350;-87
2022/10/24 11:02:31;;;;;;;6.90;2.00;;;16.50;99.90;;;;;;6302765;22;20472;-86
2022/10/24 11:05:15;;;;;;;3.07;1.80;;;16.50;99.90;;;;;;6303635;22;20373;-86
2022/10/24 11:07:55;;;;;;;9.13;1.97;;;16.50;99.90;;;;;;6301241;22;20387;-86
2022/10/24 11:10:30;;;;;;;2.90;1.30;;;16.50;99.90;;;;;;6301180;22;20408;-87
2022/10/24 11:12:59;;;;;;;7.80;2.27;;;16.70;99.90;;;;;;6330413;22;20427;-85
2022/10/24 11:15:36;;;;;;;4.17;2.50;;;16.50;99.90;;;;;;6299253;22;20687;-87
2022/10/24 11:18:11;;;;;;;5.47;1.60;;;16.80;99.90;;;;;;6301905;22;21177;-86
2022/10/24 11:20:43;;;;;;;5.70;1.97;;;16.90;99.90;;;;;;6323763;22;20612;-84
2022/10/24 11:23:09;;;;;;;7.50;2.17;;;;;;;;;;6302254;22;20373;-85
2022/10/24 11:25:52;;;;;;;4.10;1.10;;;16.70;99.90;;;;;;6300118;22;20374;-84
2022/10/24 11:28:18;;;;;;;6.40;1.33;;;;;;;;;;6304273;22;20364;-85
2022/10/24 11:31:25;;;;;;;2.87;1.80;;;17.30;99.90;;;;;;6331683;22;20781;-87
2022/10/24 11:34:04;;;;;;;3.67;1.90;;;17.20;99.90;;;;;;6207284;23;20424;-87
2022/10/24 11:36:59;;;;;;;9.33;1.83;;;17.30;99.90;;;;;;6321046;22;20381;-87
2022/10/24 11:39:29;;;;;;;4.90;1.67;;;17.30;99.90;;;;;;6334607;22;20384;-87
2022/10/24 11:42:12;;;;;;;6.53;2.33;;;17.20;99.90;;;;;;6334073;22;20434;-85
2022/10/24 11:44:50;;;;;;;4.93;1.43;;;17.10;99.90;;;;;;6333863;22;20443;-86
2022/10/24 11:47:38;;;;;;;15.43;3.53;;;16.90;99.90;;;;;;6338443;22;20688;-86
2022/10/24 11:50:05;;;;;;;7.47;2.03;;;;;;;;;;6335043;22;20454;-86
2022/10/24 11:52:36;;;;;;;4.20;1.73;;;17.10;99.90;;;;;;6335774;22;20399;-87
2022/10/24 11:55:40;;;;;;;4.67;1.50;;;17.10;99.90;;;;;;6332995;22;20489;-87
2022/10/24 11:58:12;;;;;;;13.53;2.00;;;17.10;99.90;;;;;;6334437;22;20378;-87
2022/10/24 12:01:06;;;;;;;1.70;1.30;;;17.10;99.90;;;;;;6334863;22;20417;-86
2022/10/24 12:04:19;;;;;;;5.70;2.10;;;17.20;99.90;;;;;;6323783;22;20413;-87
2022/10/24 12:07:13;;;;;;;3.17;1.60;;;17.20;99.90;;;;;;6336780;22;20368;-86
2022/10/24 12:09:56;;;;;;;7.67;2.13;;;17.10;99.90;;;;;;6335143;22;20388;-86
2022/10/24 12:13:04;;;;;;;7.20;1.77;;;17.20;99.90;;;;;;6332874;22;20364;-87
2022/10/24 12:15:54;;;;;;;8.20;1.33;;;17.20;99.90;;;;;;6335317;22;20388;-87
2022/10/24 12:18:31;;;;;;;6.03;1.93;;;17.20;99.90;;;;;;6335254;22;20380;-86
2022/10/24 12:21:03;;;;;;;3.67;2.20;;;17.40;99.90;;;;;;6337299;22;20383;-86
2022/10/24 12:23:30;;;;;;;2.87;1.90;;;17.20;99.90;;;;;;6336640;22;20430;-86
2022/10/24 12:26:04;;;;;;;2.67;1.40;;;17.00;99.90;;;;;;6333926;22;20399;-86
2022/10/24 12:28:30;;;;;;;4.90;2.53;;;;;;;;;;6334517;22;20385;-87
2022/10/24 12:31:34;;;;;;;8.73;2.00;;;17.20;99.90;;;;;;6335448;22;20365;-86
2022/10/24 12:34:15;;;;;;;10.27;2.17;;;17.30;99.90;;;;;;6328991;22;20444;-87
2022/10/24 12:37:03;;;;;;;7.33;2.40;;;17.10;99.90;;;;;;6334985;22;20377;-86
2022/10/24 12:39:30;;;;;;;4.50;1.90;;;17.20;99.90;;;;;;6333956;22;20404;-87
2022/10/24 12:41:58;;;;;;;8.23;2.60;;;;;;;;;;6334889;22;20405;-86
2022/10/24 12:44:36;;;;;;;10.10;2.00;;;17.50;99.90;;;;;;6337900;22;20372;-86
2022/10/24 12:47:31;;;;;;;6.30;2.10;;;17.60;99.90;;;;;;6337345;22;20396;-87
2022/10/24 12:50:19;;;;;;;4.70;1.80;;;17.70;99.90;;;;;;6332894;22;20396;-87
2022/10/24 12:52:45;;;;;;;9.73;2.87;;;;;;;;;;6332137;22;20792;-86
2022/10/24 12:55:46;;;;;;;10.20;1.90;;;17.90;99.90;;;;;;6336603;22;20373;-86
2022/10/24 12:58:28;;;;;;;10.83;2.10;;;17.90;99.90;;;;;;6207436;23;20433;-86
2022/10/24 13:00:56;;;;;;;8.00;2.17;;;18.00;99.90;;;;;;6322890;22;20377;-86
2022/10/24 13:03:38;;;;;;;18.03;2.50;;;18.10;99.90;;;;;;6335233;22;20914;-86
2022/10/24 13:06:22;;;;;;;3.80;2.67;;;18.00;99.90;;;;;;6332476;22;20373;-86
2022/10/24 13:09:08;;;;;;;4.73;2.40;;;17.80;99.90;;;;;;6335640;22;20403;-87
2022/10/24 13:12:05;;;;;;;5.37;2.10;;;17.90;99.90;;;;;;6336092;22;20373;-87
2022/10/24 13:15:00;;;;;;;3.03;1.63;;;18.00;99.90;;;;;;6332376;22;20811;-86
2022/10/24 13:17:51;;;;;;;7.10;1.80;;;18.00;99.90;;;;;;6333721;22;20369;-87
2022/10/24 13:20:17;;;;;;;6.00;2.00;;;;;;;;;;6334117;22;20456;-87
2022/10/24 13:22:44;;;;;;;11.17;2.23;;;17.90;99.90;;;;;;6334102;22;20836;-86
2022/10/24 13:25:33;;;;;;;6.70;1.97;;;18.10;99.90;;;;;;6333042;22;20496;-87
2022/10/24 13:28:23;;;;;;;7.67;2.20;;;18.00;99.90;;;;;;6334741;22;21058;-85